createdAt,value
2022-09-11T00:01:32.674Z,99201.41
2022-09-11T00:03:59.801Z,99202.53
2022-09-11T00:06:30.052Z,99202.53
2022-09-11T00:09:03.639Z,99194.88
2022-09-11T00:11:37.720Z,99195.22
2022-09-11T00:14:04.817Z,99201.63
2022-09-11T00:16:37.239Z,99189.47
2022-09-11T00:19:07.298Z,99195.13
2022-09-11T00:21:34.676Z,99198.78
2022-09-11T00:24:01.746Z,99191.59
2022-09-11T00:26:28.486Z,99196.91
2022-09-11T00:28:55.792Z,99198.78
2022-09-11T00:31:26.429Z,99199.56
2022-09-11T00:33:54.199Z,99196.13
2022-09-11T00:36:25.859Z,99205.19
2022-09-11T00:38:53.211Z,99202.13
2022-09-11T00:41:29.040Z,99202.78
2022-09-11T00:44:03.561Z,99195.91
2022-09-11T00:46:44.751Z,99197.03
2022-09-11T00:49:26.602Z,99202.69
2022-09-11T00:51:56.109Z,99204.13
2022-09-11T00:54:30.313Z,99202.56
2022-09-11T00:57:00.484Z,99200.22
2022-09-11T00:59:31.131Z,99195.03
2022-09-11T01:01:58.027Z,99193.94
2022-09-11T01:04:24.990Z,99193.94
2022-09-11T01:06:56.082Z,99186.75
2022-09-11T01:09:26.060Z,99191.31
2022-09-11T01:12:19.808Z,99191.06
2022-09-11T01:15:10.133Z,99184.22
2022-09-11T01:17:58.781Z,99190.28
2022-09-11T01:20:36.472Z,99181.56
2022-09-11T01:23:20.374Z,99184.53
2022-09-11T01:26:15.147Z,99180.78
2022-09-11T01:29:09.203Z,99183.00
2022-09-11T01:31:50.535Z,99185.28
2022-09-11T01:34:55.555Z,99181.88
2022-09-11T01:37:29.367Z,99180.00
2022-09-11T01:40:04.184Z,99188.41
2022-09-11T01:42:36.155Z,99182.66
2022-09-11T01:45:05.891Z,99189.94
2022-09-11T01:47:35.298Z,99191.41
2022-09-11T01:50:22.985Z,99192.50
2022-09-11T01:52:58.818Z,99188.28
2022-09-11T01:55:39.208Z,99193.59
2022-09-11T01:58:10.460Z,99189.41
2022-09-11T02:00:45.714Z,99186.00
2022-09-11T02:03:21.340Z,99189.41
2022-09-11T02:05:58.039Z,99196.59
2022-09-11T02:08:37.328Z,99178.44
2022-09-11T02:11:10.750Z,99189.06
2022-09-11T02:13:42.981Z,99185.28
2022-09-11T02:16:19.539Z,99181.88
2022-09-11T02:19:01.735Z,99182.22
2022-09-11T02:21:29.262Z,99184.53
2022-09-11T02:23:56.043Z,99173.59
2022-09-11T02:26:29.200Z,99181.88
2022-09-11T02:28:56.799Z,99173.91
2022-09-11T02:31:24.482Z,99181.88
2022-09-11T02:33:51.506Z,99173.16
2022-09-11T02:36:49.881Z,99162.44
2022-09-11T02:39:55.370Z,99166.31
2022-09-11T02:42:31.293Z,99163.19
2022-09-11T02:45:14.823Z,99162.88
2022-09-11T02:48:08.654Z,99172.72
2022-09-11T02:50:56.484Z,99171.16
2022-09-11T02:53:35.455Z,99177.88
2022-09-11T02:56:18.851Z,99166.84
2022-09-11T02:59:07.385Z,99163.84
2022-09-11T03:01:54.020Z,99176.69
2022-09-11T03:04:25.057Z,99169.69
2022-09-11T03:06:54.347Z,99165.97
2022-09-11T03:09:21.155Z,99154.91
2022-09-11T03:11:51.749Z,99168.06
2022-09-11T03:14:19.839Z,99160.09
2022-09-11T03:16:46.847Z,99168.41
2022-09-11T03:19:14.214Z,99169.19
2022-09-11T03:21:40.999Z,99171.84
2022-09-11T03:24:07.969Z,99166.53
2022-09-11T03:26:37.045Z,99179.34
2022-09-11T03:29:04.274Z,99176.69
2022-09-11T03:31:32.311Z,99169.50
2022-09-11T03:34:00.678Z,99174.81
2022-09-11T03:36:28.164Z,99178.56
2022-09-11T03:38:54.977Z,99178.56
2022-09-11T03:41:21.990Z,99178.25
2022-09-11T03:43:48.719Z,99175.16
2022-09-11T03:46:15.690Z,99170.59
2022-09-11T03:48:42.499Z,99165.75
2022-09-11T03:51:09.340Z,99166.53
2022-09-11T03:53:36.126Z,99174.03
2022-09-11T03:56:03.132Z,99175.16
2022-09-11T03:58:35.229Z,99169.84
2022-09-11T04:01:02.112Z,99170.97
2022-09-11T04:03:29.723Z,99169.38
2022-09-11T04:06:01.282Z,99172.16
2022-09-11T04:08:30.995Z,99177.13
2022-09-11T04:10:58.992Z,99174.47
2022-09-11T04:13:31.150Z,99172.59
2022-09-11T04:16:04.427Z,99166.53
2022-09-11T04:18:37.369Z,99158.13
2022-09-11T04:21:10.396Z,99157.03
2022-09-11T04:23:38.539Z,99159.00
2022-09-11T04:26:19.823Z,99165.50
2022-09-11T04:28:51.282Z,99156.34
2022-09-11T04:31:19.288Z,99157.44
2022-09-11T04:33:47.652Z,99163.53
2022-09-11T04:36:17.832Z,99163.22
2022-09-11T04:38:46.394Z,99155.25
2022-09-11T04:41:15.881Z,99147.28
2022-09-11T04:43:43.165Z,99146.28
2022-09-11T04:46:15.974Z,99139.09
2022-09-11T04:48:48.881Z,99153.47
2022-09-11T04:51:24.158Z,99148.47
2022-09-11T04:53:52.416Z,99155.66
2022-09-11T04:56:20.077Z,99147.72
2022-09-11T04:58:53.684Z,99150.81
2022-09-11T05:01:22.170Z,99158.44
2022-09-11T05:03:51.987Z,99158.53
2022-09-11T05:06:19.324Z,99142.31
2022-09-11T05:08:47.652Z,99141.19
2022-09-11T05:11:18.667Z,99145.38
2022-09-11T05:13:46.846Z,99145.50
2022-09-11T05:16:16.681Z,99153.13
2022-09-11T05:18:49.198Z,99150.13
2022-09-11T05:21:16.683Z,99152.00
2022-09-11T05:23:47.923Z,99149.03
2022-09-11T05:26:18.203Z,99156.22
2022-09-11T05:28:45.592Z,99166.50
2022-09-11T05:31:17.975Z,99173.69
2022-09-11T05:33:45.802Z,99181.22
2022-09-11T05:36:14.542Z,99171.72
2022-09-11T05:38:42.356Z,99178.34
2022-09-11T05:41:12.713Z,99181.78
2022-09-11T05:43:41.678Z,99189.63
2022-09-11T05:46:11.916Z,99175.16
2022-09-11T05:48:39.164Z,99178.16
2022-09-11T05:51:09.816Z,99181.13
2022-09-11T05:53:37.597Z,99180.69
2022-09-11T05:56:08.599Z,99182.13
2022-09-11T05:58:36.399Z,99179.13
2022-09-11T06:01:11.183Z,99179.91
2022-09-11T06:03:40.425Z,99186.88
2022-09-11T06:06:12.444Z,99181.56
2022-09-11T06:08:40.996Z,99193.25
2022-09-11T06:11:08.468Z,99194.38
2022-09-11T06:13:38.868Z,99194.38
2022-09-11T06:16:18.587Z,99197.13
2022-09-11T06:18:47.601Z,99204.88
2022-09-11T06:21:15.511Z,99202.00
2022-09-11T06:23:50.835Z,99201.13
2022-09-11T06:26:25.192Z,99211.63
2022-09-11T06:28:54.396Z,99209.63
2022-09-11T06:31:26.070Z,99206.22
2022-09-11T06:33:54.718Z,99205.88
2022-09-11T06:36:24.116Z,99212.41
2022-09-11T06:38:56.349Z,99209.41
2022-09-11T06:41:26.394Z,99209.84
2022-09-11T06:43:58.396Z,99208.31
2022-09-11T06:46:27.495Z,99202.75
2022-09-11T06:48:56.973Z,99199.44
2022-09-11T06:51:26.681Z,99201.47
2022-09-11T06:53:55.421Z,99201.13
2022-09-11T06:56:22.233Z,99209.97
2022-09-11T06:58:50.422Z,99212.63
2022-09-11T07:01:20.344Z,99196.25
2022-09-11T07:03:54.845Z,99207.63
2022-09-11T07:06:27.328Z,99203.09
2022-09-11T07:08:58.152Z,99203.44
2022-09-11T07:11:25.673Z,99195.50
2022-09-11T07:13:53.949Z,99211.41
2022-09-11T07:16:20.763Z,99212.63
2022-09-11T07:18:53.875Z,99208.84
2022-09-11T07:21:25.675Z,99205.84
2022-09-11T07:23:59.440Z,99212.19
2022-09-11T07:26:31.022Z,99206.09
2022-09-11T07:29:04.318Z,99211.31
2022-09-11T07:31:32.961Z,99212.06
2022-09-11T07:34:00.700Z,99206.41
2022-09-11T07:36:30.120Z,99210.19
2022-09-11T07:38:58.144Z,99208.75
2022-09-11T07:41:32.203Z,99220.25
2022-09-11T07:44:03.267Z,99212.72
2022-09-11T07:46:31.813Z,99217.34
2022-09-11T07:49:02.415Z,99226.63
2022-09-11T07:51:30.503Z,99223.06
2022-09-11T07:54:02.573Z,99219.06
2022-09-11T07:56:33.872Z,99221.94
2022-09-11T07:59:02.289Z,99226.91
2022-09-11T08:01:31.416Z,99230.53
2022-09-11T08:04:01.443Z,99230.75
2022-09-11T08:06:31.064Z,99227.81
2022-09-11T08:09:03.941Z,99231.13
2022-09-11T08:11:37.574Z,99225.66
2022-09-11T08:14:04.504Z,99238.84
2022-09-11T08:16:32.152Z,99235.75
2022-09-11T08:19:00.397Z,99249.47
2022-09-11T08:21:27.275Z,99246.91
2022-09-11T08:23:54.527Z,99244.69
2022-09-11T08:26:27.465Z,99249.53
2022-09-11T08:28:57.958Z,99246.69
2022-09-11T08:31:27.989Z,99240.34
2022-09-11T08:33:57.576Z,99233.84
2022-09-11T08:36:24.695Z,99230.63
2022-09-11T08:38:52.998Z,99239.03
2022-09-11T08:41:23.770Z,99249.75
2022-09-11T08:44:13.055Z,99229.06
2022-09-11T08:46:48.455Z,99233.78
2022-09-11T08:49:29.022Z,99240.75
2022-09-11T08:52:01.380Z,99241.44
2022-09-11T08:54:33.117Z,99241.78
2022-09-11T08:57:14.470Z,99259.69
2022-09-11T09:00:06.982Z,99250.59
2022-09-11T09:03:13.377Z,99263.22
2022-09-11T09:06:08.083Z,99244.53
2022-09-11T09:08:49.904Z,99238.69
2022-09-11T09:11:51.166Z,99235.84
2022-09-11T09:14:42.385Z,99226.44
2022-09-11T09:17:22.228Z,99230.59
2022-09-11T09:20:04.410Z,99224.34
2022-09-11T09:22:48.625Z,99226.56
2022-09-11T09:25:21.329Z,99225.28
2022-09-11T09:27:57.928Z,99228.16
2022-09-11T09:30:25.367Z,99234.06
2022-09-11T09:32:55.637Z,99232.53
2022-09-11T09:35:45.269Z,99229.59
2022-09-11T09:38:26.414Z,99234.91
2022-09-11T09:41:03.578Z,99230.44
2022-09-11T09:43:45.559Z,99245.13
2022-09-11T09:46:36.156Z,99242.38
2022-09-11T09:49:03.200Z,99236.97
2022-09-11T09:51:30.031Z,99242.72
2022-09-11T09:54:01.522Z,99243.16
2022-09-11T09:56:31.370Z,99247.09
2022-09-11T09:59:18.869Z,99243.81
2022-09-11T10:01:51.405Z,99248.47
2022-09-11T10:04:20.548Z,99241.81
2022-09-11T10:06:50.682Z,99239.59
2022-09-11T10:09:29.547Z,99241.19
2022-09-11T10:12:02.482Z,99259.16
2022-09-11T10:14:50.292Z,99245.47
2022-09-11T10:17:28.334Z,99248.34
2022-09-11T10:19:56.884Z,99253.00
2022-09-11T10:22:29.665Z,99251.28
2022-09-11T10:25:09.596Z,99251.81
2022-09-11T10:27:58.477Z,99255.34
2022-09-11T10:30:37.446Z,99256.09
2022-09-11T10:33:33.692Z,99256.19
2022-09-11T10:36:03.787Z,99251.75
2022-09-11T10:38:51.503Z,99258.34
2022-09-11T10:41:23.465Z,99242.31
2022-09-11T10:44:23.445Z,99242.81
2022-09-11T10:47:05.879Z,99242.91
2022-09-11T10:49:32.926Z,99248.44
2022-09-11T10:52:17.434Z,99243.56
2022-09-11T10:55:12.437Z,99239.47
2022-09-11T10:57:45.252Z,99235.59
2022-09-11T11:00:25.130Z,99248.97
2022-09-11T11:03:10.655Z,99245.13
2022-09-11T11:05:45.971Z,99252.34
2022-09-11T11:08:15.778Z,99250.88
2022-09-11T11:11:01.555Z,99253.78
2022-09-11T11:13:39.644Z,99255.75
2022-09-11T11:16:43.680Z,99244.47
2022-09-11T11:19:31.972Z,99242.31
2022-09-11T11:22:22.212Z,99244.91
2022-09-11T11:25:16.369Z,99242.94
2022-09-11T11:28:11.186Z,99246.75
2022-09-11T11:31:15.824Z,99251.94
2022-09-11T11:33:42.583Z,99248.84
2022-09-11T11:36:33.444Z,99242.34
2022-09-11T11:39:16.574Z,99244.53
2022-09-11T11:41:47.026Z,99247.53
2022-09-11T11:44:50.544Z,99247.88
2022-09-11T11:47:21.854Z,99240.91
2022-09-11T11:50:03.679Z,99239.38
2022-09-11T11:52:33.165Z,99245.47
2022-09-11T11:55:15.927Z,99257.59
2022-09-11T11:57:50.938Z,99255.16
2022-09-11T12:00:18.718Z,99251.19
2022-09-11T12:03:10.642Z,99252.03
2022-09-11T12:05:38.664Z,99263.09
2022-09-11T12:08:12.339Z,99255.56
2022-09-11T12:10:41.850Z,99255.22
2022-09-11T12:13:19.920Z,99250.00
2022-09-11T12:16:11.359Z,99247.38
2022-09-11T12:18:38.951Z,99244.09
2022-09-11T12:21:31.816Z,99238.13
2022-09-11T12:23:58.571Z,99246.78
2022-09-11T12:26:26.911Z,99238.56
2022-09-11T12:29:12.952Z,99244.91
2022-09-11T12:31:52.028Z,99241.34
2022-09-11T12:34:52.259Z,99235.81
2022-09-11T12:37:35.426Z,99235.72
2022-09-11T12:40:14.161Z,99245.19
2022-09-11T12:42:56.560Z,99231.53
2022-09-11T12:45:32.584Z,99230.41
2022-09-11T12:48:12.682Z,99224.78
2022-09-11T12:50:48.119Z,99224.44
2022-09-11T12:53:21.068Z,99217.25
2022-09-11T12:56:08.402Z,99215.72
2022-09-11T12:58:39.153Z,99217.72
2022-09-11T13:01:11.625Z,99214.53
2022-09-11T13:03:49.559Z,99197.16
2022-09-11T13:06:17.704Z,99200.66
2022-09-11T13:08:55.632Z,99195.81
2022-09-11T13:11:47.003Z,99200.44
2022-09-11T13:14:28.125Z,99191.22
2022-09-11T13:17:03.627Z,99188.09
2022-09-11T13:19:37.094Z,99189.25
2022-09-11T13:22:29.377Z,99183.22
2022-09-11T13:25:22.604Z,99173.72
2022-09-11T13:27:52.727Z,99172.38
2022-09-11T13:30:22.307Z,99180.25
2022-09-11T13:32:59.637Z,99181.31
2022-09-11T13:35:29.280Z,99191.13
2022-09-11T13:38:11.186Z,99193.22
2022-09-11T13:40:58.847Z,99201.72
2022-09-11T13:43:33.014Z,99206.00
2022-09-11T13:46:10.818Z,99209.53
2022-09-11T13:48:37.638Z,99217.19
2022-09-11T13:51:05.075Z,99213.16
2022-09-11T13:53:32.856Z,99203.91
2022-09-11T13:55:59.592Z,99204.09
2022-09-11T13:58:30.863Z,99210.00
2022-09-11T14:01:10.651Z,99210.56
2022-09-11T14:03:42.832Z,99211.06
2022-09-11T14:06:15.330Z,99201.81
2022-09-11T14:08:49.004Z,99215.59
2022-09-11T14:11:28.052Z,99219.53
2022-09-11T14:14:30.021Z,99220.03
2022-09-11T14:16:59.980Z,99217.22
2022-09-11T14:19:31.253Z,99225.09
2022-09-11T14:21:59.064Z,99227.75
2022-09-11T14:24:27.097Z,99223.84
2022-09-11T14:26:54.464Z,99224.38
2022-09-11T14:29:26.006Z,99215.00
2022-09-11T14:31:53.479Z,99222.50
2022-09-11T14:34:29.474Z,99220.75
2022-09-11T14:37:11.334Z,99215.69
2022-09-11T14:39:47.554Z,99202.22
2022-09-11T14:42:22.635Z,99209.59
2022-09-11T14:44:49.598Z,99204.88
2022-09-11T14:47:19.218Z,99206.09
2022-09-11T14:49:47.150Z,99203.50
2022-09-11T14:52:17.049Z,99198.00
2022-09-11T14:54:44.809Z,99191.97
2022-09-11T14:57:17.215Z,99197.66
2022-09-11T14:59:47.151Z,99194.63
2022-09-11T15:02:18.252Z,99200.78
2022-09-11T15:04:45.061Z,99191.97
2022-09-11T15:07:13.677Z,99196.13
2022-09-11T15:09:41.401Z,99197.72
2022-09-11T15:12:09.919Z,99202.00
2022-09-11T15:14:55.544Z,99207.38
2022-09-11T15:17:22.797Z,99194.69
2022-09-11T15:19:49.609Z,99192.34
2022-09-11T15:22:17.177Z,99187.28
2022-09-11T15:24:43.901Z,99179.16
2022-09-11T15:27:10.663Z,99182.94
2022-09-11T15:29:37.524Z,99187.13
2022-09-11T15:32:04.516Z,99178.50
2022-09-11T15:34:31.262Z,99180.06
2022-09-11T15:36:58.223Z,99179.66
2022-09-11T15:39:25.066Z,99182.25
2022-09-11T15:41:52.539Z,99190.31
2022-09-11T15:44:22.287Z,99203.38
2022-09-11T15:46:51.088Z,99223.03
2022-09-11T15:49:19.289Z,99221.97
2022-09-11T15:51:46.166Z,99231.44
2022-09-11T15:54:13.088Z,99240.84
2022-09-11T15:56:39.875Z,99254.44
2022-09-11T15:59:06.609Z,99266.50
2022-09-11T16:01:35.089Z,99276.63
2022-09-11T16:04:08.393Z,99307.59
2022-09-11T16:06:38.401Z,99311.22
2022-09-11T16:09:08.397Z,99314.09
2022-09-11T16:11:35.618Z,99312.25
2022-09-11T16:14:03.349Z,99305.69
2022-09-11T16:16:30.038Z,99327.34
2022-09-11T16:18:56.879Z,99315.53
2022-09-11T16:21:23.615Z,99323.69
2022-09-11T16:23:55.015Z,99326.84
2022-09-11T16:26:23.580Z,99318.53
2022-09-11T16:28:50.479Z,99317.00
2022-09-11T16:31:17.275Z,99318.94
2022-09-11T16:33:44.644Z,99319.50
2022-09-11T16:36:17.308Z,99306.00
2022-09-11T16:38:45.742Z,99307.63
2022-09-11T16:41:15.311Z,99308.41
2022-09-11T16:43:44.238Z,99313.91
2022-09-11T16:46:13.908Z,99313.03
2022-09-11T16:48:41.595Z,99311.16
2022-09-11T16:51:08.361Z,99317.25
2022-09-11T16:53:35.532Z,99321.56
2022-09-11T16:56:10.310Z,99319.13
2022-09-11T16:58:37.965Z,99315.25
2022-09-11T17:01:09.464Z,99315.16
2022-09-11T17:03:41.399Z,99306.09
2022-09-11T17:06:09.514Z,99302.66
2022-09-11T17:08:36.404Z,99304.88
2022-09-11T17:11:03.148Z,99309.41
2022-09-11T17:13:30.055Z,99304.88
2022-09-11T17:16:05.464Z,99297.16
2022-09-11T17:18:33.286Z,99291.41
2022-09-11T17:21:04.527Z,99292.16
2022-09-11T17:23:35.610Z,99298.59
2022-09-11T17:26:07.606Z,99304.22
2022-09-11T17:28:37.056Z,99303.03
2022-09-11T17:31:05.476Z,99297.63
2022-09-11T17:33:35.132Z,99304.38
2022-09-11T17:36:04.107Z,99310.16
2022-09-11T17:38:31.531Z,99313.88
2022-09-11T17:41:00.369Z,99313.88
2022-09-11T17:43:27.766Z,99321.34
2022-09-11T17:46:07.103Z,99318.81
2022-09-11T17:48:34.941Z,99324.31
2022-09-11T17:51:08.260Z,99324.88
2022-09-11T17:53:38.395Z,99326.09
2022-09-11T17:56:09.478Z,99327.63
2022-09-11T17:58:37.564Z,99332.16
2022-09-11T18:01:05.236Z,99345.09
2022-09-11T18:03:33.124Z,99334.81
2022-09-11T18:06:02.110Z,99338.25
2022-09-11T18:08:37.173Z,99334.38
2022-09-11T18:11:07.102Z,99339.25
2022-09-11T18:13:34.593Z,99348.69
2022-09-11T18:16:03.679Z,99342.59
2022-09-11T18:18:31.415Z,99341.03
2022-09-11T18:21:04.882Z,99347.03
2022-09-11T18:23:32.177Z,99357.97
2022-09-11T18:25:59.878Z,99358.63
2022-09-11T18:28:27.216Z,99354.44
2022-09-11T18:31:01.702Z,99355.88
2022-09-11T18:33:29.038Z,99359.31
2022-09-11T18:35:56.469Z,99366.09
2022-09-11T18:38:23.858Z,99365.22
2022-09-11T18:40:55.480Z,99363.31
2022-09-11T18:43:22.815Z,99369.28
2022-09-11T18:45:49.630Z,99367.75
2022-09-11T18:48:16.791Z,99362.34
2022-09-11T18:50:44.002Z,99363.41
2022-09-11T18:53:11.247Z,99364.09
2022-09-11T18:55:38.636Z,99364.44
2022-09-11T18:58:06.113Z,99367.09
2022-09-11T19:00:33.329Z,99365.44
2022-09-11T19:03:00.364Z,99362.69
2022-09-11T19:05:27.336Z,99361.09
2022-09-11T19:07:56.448Z,99366.75
2022-09-11T19:10:24.630Z,99363.53
2022-09-11T19:12:51.598Z,99370.63
2022-09-11T19:15:19.058Z,99370.31
2022-09-11T19:17:48.046Z,99379.25
2022-09-11T19:20:17.049Z,99372.28
2022-09-11T19:22:44.263Z,99375.59
2022-09-11T19:25:11.097Z,99369.09
2022-09-11T19:27:38.109Z,99378.47
2022-09-11T19:30:06.346Z,99369.25
2022-09-11T19:32:33.860Z,99371.78
2022-09-11T19:35:01.015Z,99371.78
2022-09-11T19:37:28.132Z,99370.25
2022-09-11T19:39:55.294Z,99372.44
2022-09-11T19:42:22.629Z,99375.09
2022-09-11T19:44:53.044Z,99367.16
2022-09-11T19:47:22.704Z,99377.00
2022-09-11T19:49:49.824Z,99376.53
2022-09-11T19:52:16.788Z,99380.28
2022-09-11T19:54:43.817Z,99390.47
2022-09-11T19:57:10.741Z,99391.38
2022-09-11T19:59:37.712Z,99387.47
2022-09-11T20:02:05.847Z,99394.03
2022-09-11T20:04:32.992Z,99392.25
2022-09-11T20:07:00.512Z,99402.41
2022-09-11T20:09:31.299Z,99404.28
2022-09-11T20:12:00.726Z,99410.47
2022-09-11T20:14:29.030Z,99415.38
2022-09-11T20:16:55.793Z,99409.59
2022-09-11T20:19:22.668Z,99409.47
2022-09-11T20:21:49.655Z,99410.91
2022-09-11T20:24:16.441Z,99411.25
2022-09-11T20:26:43.214Z,99411.25
2022-09-11T20:29:13.874Z,99410.78
2022-09-11T20:31:46.994Z,99412.13
2022-09-11T20:34:16.268Z,99414.66
2022-09-11T20:36:43.172Z,99411.59
2022-09-11T20:39:12.035Z,99408.00
2022-09-11T20:41:39.684Z,99411.47
2022-09-11T20:44:08.126Z,99405.81
2022-09-11T20:46:34.946Z,99409.47
2022-09-11T20:49:01.862Z,99407.59
2022-09-11T20:51:28.958Z,99409.91
2022-09-11T20:53:56.159Z,99411.34
2022-09-11T20:56:23.639Z,99409.00
2022-09-11T20:58:50.698Z,99410.25
2022-09-11T21:01:21.040Z,99414.78
2022-09-11T21:03:53.454Z,99414.31
2022-09-11T21:06:25.519Z,99417.63
2022-09-11T21:08:54.752Z,99418.25
2022-09-11T21:11:22.192Z,99413.63
2022-09-11T21:13:49.016Z,99414.94
2022-09-11T21:16:16.668Z,99425.97
2022-09-11T21:18:49.510Z,99427.94
2022-09-11T21:21:17.408Z,99427.94
2022-09-11T21:23:45.289Z,99436.56
2022-09-11T21:26:14.354Z,99435.00
2022-09-11T21:28:41.875Z,99436.75
2022-09-11T21:31:09.797Z,99430.34
2022-09-11T21:33:37.913Z,99432.84
2022-09-11T21:36:05.976Z,99433.63
2022-09-11T21:38:33.219Z,99434.63
2022-09-11T21:41:01.725Z,99437.75
2022-09-11T21:43:29.098Z,99434.41
2022-09-11T21:45:56.158Z,99433.53
2022-09-11T21:48:24.074Z,99444.13
2022-09-11T21:50:51.365Z,99436.94
2022-09-11T21:53:18.969Z,99436.19
2022-09-11T21:55:47.341Z,99438.72
2022-09-11T21:58:21.009Z,99447.00
2022-09-11T22:00:49.328Z,99447.66
2022-09-11T22:03:18.375Z,99449.06
2022-09-11T22:05:47.235Z,99454.38
2022-09-11T22:08:17.611Z,99451.41
2022-09-11T22:10:47.007Z,99456.25
2022-09-11T22:13:14.220Z,99457.69
2022-09-11T22:15:46.514Z,99457.69
2022-09-11T22:18:14.352Z,99457.25
2022-09-11T22:20:42.141Z,99453.81
2022-09-11T22:23:14.855Z,99455.81
2022-09-11T22:25:41.683Z,99467.06
2022-09-11T22:28:08.912Z,99462.09
2022-09-11T22:30:36.254Z,99472.38
2022-09-11T22:33:03.105Z,99461.00
2022-09-11T22:35:34.675Z,99464.09
2022-09-11T22:38:01.481Z,99463.97
2022-09-11T22:40:28.334Z,99461.53
2022-09-11T22:42:55.066Z,99465.06
2022-09-11T22:45:21.863Z,99452.47
2022-09-11T22:47:48.643Z,99459.19
2022-09-11T22:50:15.603Z,99461.41
2022-09-11T22:52:42.447Z,99461.84
2022-09-11T22:55:09.573Z,99463.28
2022-09-11T22:57:36.515Z,99469.00
2022-09-11T23:00:07.975Z,99458.75
2022-09-11T23:02:35.380Z,99468.63
2022-09-11T23:05:03.328Z,99465.66
2022-09-11T23:07:30.249Z,99469.09
2022-09-11T23:09:57.078Z,99467.22
2022-09-11T23:12:23.889Z,99466.75
2022-09-11T23:14:50.688Z,99464.09
2022-09-11T23:17:17.520Z,99472.25
2022-09-11T23:19:44.258Z,99466.94
2022-09-11T23:22:11.226Z,99467.59
2022-09-11T23:24:37.976Z,99461.06
2022-09-11T23:27:04.921Z,99474.19
2022-09-11T23:29:31.790Z,99468.31
2022-09-11T23:31:58.642Z,99474.25
2022-09-11T23:34:25.570Z,99467.28
2022-09-11T23:36:52.369Z,99466.03
2022-09-11T23:39:19.191Z,99472.09
2022-09-11T23:41:45.922Z,99471.34
2022-09-11T23:44:12.773Z,99472.09
2022-09-11T23:46:39.460Z,99469.78
2022-09-11T23:49:06.359Z,99465.56
2022-09-11T23:51:33.424Z,99465.28
2022-09-11T23:54:00.201Z,99468.22
2022-09-11T23:56:26.993Z,99468.09
2022-09-11T23:58:53.833Z,99470.09
